Shinryu Maru — JD3969 — position and weather

sailwx.info

Track history (hours):
 
Tides and Currents Weather Stations Pressure Air Temp Water Temp Dewpoint Dewpoint Depression Visibility Wind Speed Wind Dir Waves Ship Positions

Shinryu Maru

Last reported at 2017-Dec-11 13:40 UTC. Time now 2017-Dec-13 14:46 UTC.
Position N 33°50' E 132°13'.

Length 84 m; draft 5 m.

Type: Cargo ship. MMSI: 431007228.

Date/timePositionNaut miles runAvg speedWind from/ knotsBaromVisibWave heightAir tempDewpointWater temp
2017-Dec-11 13:40N 33°50' E 132°13'1712.6
2017-Dec-11 12:20N 33°57' E 132°32'413.1
2017-Dec-11 12:00N 33°60' E 132°35'613.0
2017-Dec-11 11:30N 34°03' E 132°42'7711.7
2017-Dec-11 04:57N 34°32' E 134°09'1113.1
2017-Dec-11 04:06N 34°37' E 134°20'313.3
2017-Dec-11 03:54N 34°39' E 134°23'613.3
2017-Dec-11 03:28N 34°41' E 134°29'612.5
2017-Dec-11 03:00N 34°41' E 134°36'612.7
2017-Dec-11 02:30N 34°40' E 134°44'612.8
2017-Dec-11 02:00N 34°38' E 134°51'612.6
2017-Dec-11 01:30N 34°38' E 134°59'611.2
2017-Dec-11 01:00N 34°36' E 135°06'612.6
2017-Dec-11 00:30N 34°36' E 135°13'612.7
2017-Dec-11 00:01N 34°36' E 135°21'510.0
2017-Dec-10 23:30N 34°35' E 135°27'0 0.4
2017-Dec-10 23:00N 34°35' E 135°27'0 0.0
2017-Dec-10 22:30N 34°35' E 135°27'0 0.0
2017-Dec-10 22:00N 34°35' E 135°27'0 0.0
2017-Dec-10 21:30N 34°35' E 135°27'0 0.0
2017-Dec-10 21:00N 34°35' E 135°27'0 0.0
2017-Dec-10 20:30N 34°35' E 135°27'0 0.0
2017-Dec-10 20:00N 34°35' E 135°27'0 0.0
2017-Dec-10 19:30N 34°35' E 135°27'0 0.0
2017-Dec-10 19:00N 34°35' E 135°27'0 0.0
2017-Dec-10 18:30N 34°35' E 135°27'0 0.0
2017-Dec-10 18:00N 34°35' E 135°27'0 0.0
2017-Dec-10 17:30N 34°35' E 135°27'0 0.0
2017-Dec-10 17:00N 34°35' E 135°27'0 0.0
2017-Dec-10 16:30N 34°35' E 135°27'0 0.0
2017-Dec-10 16:00N 34°35' E 135°27'0 0.0
2017-Dec-10 15:30N 34°35' E 135°27'0 0.0
2017-Dec-10 15:00N 34°35' E 135°27'0 0.0
2017-Dec-10 14:30N 34°35' E 135°27'0 0.0
2017-Dec-10 14:00N 34°35' E 135°27'0 0.0
2017-Dec-10 13:30N 34°35' E 135°27'0 0.0
2017-Dec-10 13:00N 34°35' E 135°27'0 0.0
2017-Dec-10 12:30N 34°35' E 135°27'0 0.0
2017-Dec-10 12:00N 34°35' E 135°27'1 2.3
2017-Dec-10 11:30N 34°35' E 135°26'510.1
2017-Dec-10 11:00N 34°34' E 135°20'713.1
2017-Dec-10 10:30N 34°29' E 135°15'612.7
2017-Dec-10 10:00N 34°25' E 135°09'612.6
2017-Dec-10 09:30N 34°20' E 135°05'5 9.3
2017-Dec-10 09:00N 34°15' E 135°04'3 5.1
2017-Dec-10 08:30N 34°15' E 135°07'0 0.0
2017-Dec-10 08:00N 34°15' E 135°07'0 0.0
2017-Dec-10 07:30N 34°15' E 135°07'0 0.0
2017-Dec-10 07:00N 34°15' E 135°07'0 0.0
2017-Dec-10 06:30N 34°15' E 135°07'0 0.0
2017-Dec-10 06:00N 34°15' E 135°07'0 0.0
2017-Dec-10 05:30N 34°15' E 135°07'0 0.1
2017-Dec-10 05:00N 34°15' E 135°07'0 0.0
2017-Dec-10 04:30N 34°15' E 135°07'0 0.0
2017-Dec-10 04:00N 34°15' E 135°07'0 0.0
2017-Dec-10 03:30N 34°15' E 135°07'0 0.0
2017-Dec-10 03:00N 34°15' E 135°07'0 0.0
2017-Dec-10 02:30N 34°15' E 135°07'0 0.0
2017-Dec-10 02:00N 34°15' E 135°07'0 0.0
2017-Dec-10 01:30N 34°15' E 135°07'0 0.0
2017-Dec-10 01:00N 34°15' E 135°07'0 0.0
2017-Dec-10 00:30N 34°15' E 135°07'0 0.0
2017-Dec-10 00:00N 34°15' E 135°07'0 0.0
2017-Dec-09 23:30N 34°15' E 135°07'0 0.0
2017-Dec-09 23:00N 34°15' E 135°07'0 0.0
2017-Dec-09 22:30N 34°15' E 135°07'0 0.0
2017-Dec-09 22:00N 34°15' E 135°07'0 0.0
2017-Dec-09 21:30N 34°15' E 135°07'0 0.0
2017-Dec-09 21:00N 34°15' E 135°07'1 2.3
2017-Dec-09 20:30N 34°15' E 135°06'0 0.0
2017-Dec-09 20:00N 34°15' E 135°06'0 0.0
2017-Dec-09 19:30N 34°15' E 135°06'0 0.0
2017-Dec-09 19:00N 34°15' E 135°06'0 0.0
2017-Dec-09 18:30N 34°15' E 135°06'0 0.0
2017-Dec-09 18:00N 34°15' E 135°06'0 0.0
2017-Dec-09 17:30N 34°15' E 135°06'0 0.0
2017-Dec-09 17:00N 34°15' E 135°06'0 0.0
2017-Dec-09 16:30N 34°15' E 135°06'0 0.0
2017-Dec-09 16:00N 34°15' E 135°06'0 0.0
2017-Dec-09 15:30N 34°15' E 135°06'0 0.0
2017-Dec-09 15:00N 34°15' E 135°06'0 0.1
2017-Dec-09 14:30N 34°15' E 135°06'0 0.0
2017-Dec-09 14:00N 34°15' E 135°06'0 0.1
2017-Dec-09 13:30N 34°15' E 135°06'0 0.0
2017-Dec-09 13:00N 34°15' E 135°06'0 0.0
2017-Dec-09 12:30N 34°15' E 135°06'0 0.0
2017-Dec-09 12:00N 34°15' E 135°06'0 0.0
2017-Dec-09 11:30N 34°15' E 135°06'0 0.0
2017-Dec-09 11:00N 34°15' E 135°06'0 0.0
2017-Dec-09 10:30N 34°15' E 135°06'4 7.9
2017-Dec-09 10:00N 34°18' E 135°04'714.2
2017-Dec-09 09:30N 34°24' E 135°09'713.8
2017-Dec-09 09:00N 34°29' E 135°15'713.7
2017-Dec-09 08:30N 34°34' E 135°20'510.6
2017-Dec-09 08:00N 34°35' E 135°27'0 0.9
2017-Dec-09 07:30N 34°35' E 135°27'0 0.0
2017-Dec-09 07:00N 34°35' E 135°27'0 0.0
2017-Dec-09 06:30N 34°35' E 135°27'0 0.0
2017-Dec-09 06:00N 34°35' E 135°27'0 0.0
2017-Dec-09 05:30N 34°35' E 135°27'0 0.0
2017-Dec-09 05:00N 34°35' E 135°27'0 0.0
2017-Dec-09 04:30N 34°35' E 135°27'0 0.0
2017-Dec-09 04:00N 34°35' E 135°27'0 0.0
2017-Dec-09 03:30N 34°35' E 135°27'0 0.0
2017-Dec-09 03:00N 34°35' E 135°27'0 0.0
2017-Dec-09 02:30N 34°35' E 135°27'0 0.0
2017-Dec-09 02:00N 34°35' E 135°27'0 0.0
2017-Dec-09 01:30N 34°35' E 135°27'0 0.0
2017-Dec-09 01:00N 34°35' E 135°27'0 0.0
2017-Dec-09 00:30N 34°35' E 135°27'0 0.0
2017-Dec-09 00:00N 34°35' E 135°27'0 0.0
2017-Dec-08 23:30N 34°35' E 135°27'0 0.0
2017-Dec-08 23:00N 34°35' E 135°27'0 0.0
2017-Dec-08 22:30N 34°35' E 135°27'0 0.0
2017-Dec-08 22:00N 34°35' E 135°27'0 0.0
2017-Dec-08 21:30N 34°35' E 135°27'0 0.0
2017-Dec-08 21:00N 34°35' E 135°27'0 0.0
2017-Dec-08 20:30N 34°35' E 135°27'0 0.0
2017-Dec-08 20:00N 34°35' E 135°27'0 0.0
2017-Dec-08 19:30N 34°35' E 135°27'0 0.0
2017-Dec-08 19:00N 34°35' E 135°27'0 0.0
2017-Dec-08 18:30N 34°35' E 135°27'0 0.0
2017-Dec-08 18:00N 34°35' E 135°27'0 0.0
2017-Dec-08 17:30N 34°35' E 135°27'0 0.0
2017-Dec-08 17:00N 34°35' E 135°27'0 0.0
2017-Dec-08 16:30N 34°35' E 135°27'0 0.0
2017-Dec-08 16:00N 34°35' E 135°27'0 0.0
2017-Dec-08 15:30N 34°35' E 135°27'0 0.0
2017-Dec-08 15:00N 34°35' E 135°27'0 0.0
2017-Dec-08 14:30N 34°35' E 135°27'0 0.0
2017-Dec-08 14:00N 34°35' E 135°27'0 0.0
2017-Dec-08 13:30N 34°35' E 135°27'1 1.6
2017-Dec-08 13:00N 34°35' E 135°26'510.1
2017-Dec-08 12:30N 34°35' E 135°20'612.2
2017-Dec-08 12:00N 34°30' E 135°15'611.1
2017-Dec-08 11:30N 34°26' E 135°11'611.9
2017-Dec-08 11:00N 34°21' E 135°06'611.2
2017-Dec-08 10:30N 34°16' E 135°03'4 7.7
2017-Dec-08 10:00N 34°14' E 135°07'0 0.4
2017-Dec-08 09:30N 34°15' E 135°07'0 0.0
2017-Dec-08 09:00N 34°15' E 135°07'0 0.0
2017-Dec-08 08:30N 34°15' E 135°07'0 0.0
2017-Dec-08 08:00N 34°15' E 135°07'0 0.0
2017-Dec-08 07:30N 34°15' E 135°07'0 0.0
2017-Dec-08 07:00N 34°15' E 135°07'0 0.0
2017-Dec-08 06:30N 34°15' E 135°07'0 0.0
2017-Dec-08 06:00N 34°15' E 135°07'0 0.0
2017-Dec-08 05:30N 34°15' E 135°07'0 0.0
2017-Dec-08 05:00N 34°15' E 135°07'0 0.0
2017-Dec-08 04:30N 34°15' E 135°07'0 0.0
2017-Dec-08 04:00N 34°15' E 135°07'0 0.0
2017-Dec-08 03:30N 34°15' E 135°07'0 0.0
2017-Dec-08 03:00N 34°15' E 135°07'0 0.0
2017-Dec-08 02:30N 34°15' E 135°07'0 0.0
2017-Dec-08 02:00N 34°15' E 135°07'0 0.0
2017-Dec-08 01:30N 34°15' E 135°07'0 0.0
2017-Dec-08 01:00N 34°15' E 135°07'0 0.0
2017-Dec-08 00:30N 34°15' E 135°07'0 0.0
2017-Dec-08 00:00N 34°15' E 135°07'0 0.0
2017-Dec-07 23:30N 34°15' E 135°07'0 0.0
2017-Dec-07 23:00N 34°15' E 135°07'0 0.0
2017-Dec-07 22:30N 34°15' E 135°07'0 0.0
2017-Dec-07 22:00N 34°15' E 135°07'0 0.0
2017-Dec-07 21:30N 34°15' E 135°07'0 0.1
2017-Dec-07 21:00N 34°15' E 135°07'0 0.0
2017-Dec-07 20:30N 34°15' E 135°07'0 0.0
2017-Dec-07 20:00N 34°15' E 135°07'0 0.0
2017-Dec-07 19:30N 34°15' E 135°07'0 0.0
2017-Dec-07 19:00N 34°15' E 135°07'0 0.0
2017-Dec-07 18:30N 34°15' E 135°07'0 0.0
2017-Dec-07 18:00N 34°15' E 135°07'0 0.0
2017-Dec-07 17:30N 34°15' E 135°07'0 0.0
2017-Dec-07 17:00N 34°15' E 135°07'0 0.0
2017-Dec-07 16:30N 34°15' E 135°07'1 1.3
2017-Dec-07 16:00N 34°14' E 135°06'611.3
2017-Dec-07 15:30N 34°09' E 135°04'713.5
2017-Dec-07 15:00N 34°02' E 135°03'713.4
2017-Dec-07 14:28N 33°55' E 135°02'6510.3
2017-Dec-07 08:11N 33°47' E 136°19'2713.8
2017-Dec-07 06:13N 34°06' E 136°43'313.2
2017-Dec-07 05:57N 34°08' E 136°47'2613.3
2017-Dec-07 03:58N 34°31' E 137°02'913.8
2017-Dec-07 03:19N 34°38' E 136°54'514.2
2017-Dec-07 03:00N 34°41' E 136°50'714.2
2017-Dec-07 02:30N 34°47' E 136°46'713.6
2017-Dec-07 02:00N 34°54' E 136°46'713.5
2017-Dec-07 01:30N 34°60' E 136°49'4 8.3
2017-Dec-07 01:00N 35°03' E 136°53'0 0.0
2017-Dec-07 00:30N 35°03' E 136°53'0 0.0
2017-Dec-07 00:00N 35°03' E 136°53'0 0.0
2017-Dec-06 23:30N 35°03' E 136°53'0 0.0
2017-Dec-06 23:00N 35°03' E 136°53'0 0.0
2017-Dec-06 22:30N 35°03' E 136°53'0 0.0
2017-Dec-06 22:00N 35°03' E 136°53'0 0.0
2017-Dec-06 21:30N 35°03' E 136°53'0 0.0
2017-Dec-06 21:00N 35°03' E 136°53'  
2017-Dec-04 10:30N 33°58' E 132°43'7911.5
2017-Dec-04 03:40N 34°32' E 134°09'1112.6
2017-Dec-04 02:46N 34°39' E 134°20'413.2
2017-Dec-04 02:30N 34°40' E 134°23'713.5
2017-Dec-04 02:00N 34°43' E 134°31'713.1
2017-Dec-04 01:30N 34°46' E 134°38'0 0.1
2017-Dec-03 18:50N 34°47' E 134°38'0 0.0
2017-Dec-03 18:15N 34°47' E 134°38'0 0.0
2017-Dec-03 13:49N 34°47' E 134°38'2 5.1
2017-Dec-03 13:30N 34°45' E 134°38'0 0.2
2017-Dec-03 13:00N 34°45' E 134°38'0 0.1
2017-Dec-03 12:29N 34°45' E 134°38'3 6.4
2017-Dec-03 12:01N 34°42' E 134°40'612.8
2017-Dec-03 11:30N 34°36' E 134°40'612.9
2017-Dec-03 11:01N 34°30' E 134°39'612.8
2017-Dec-03 10:30N 34°23' E 134°38'713.3
2017-Dec-03 09:59N 34°16' E 134°38'714.2
2017-Dec-03 09:29N 34°10' E 134°43'612.7
2017-Dec-03 09:00N 34°06' E 134°48'612.5
2017-Dec-03 08:30N 34°01' E 134°53'712.9
2017-Dec-03 07:57N 33°55' E 134°58'83 9.3
2017-Dec-02 22:58N 34°01' E 136°38'612.9
2017-Dec-02 22:30N 34°05' E 136°43'3211.3
2017-Dec-02 19:38N 34°36' E 136°57'412.1
2017-Dec-02 19:21N 34°38' E 136°54'412.5
2017-Dec-02 19:00N 34°41' E 136°50'612.9
2017-Dec-02 18:30N 34°47' E 136°47'612.6
2017-Dec-02 18:00N 34°53' E 136°46'612.4
2017-Dec-02 17:30N 34°59' E 136°48'510.7
2017-Dec-02 17:00N 35°03' E 136°53'0 0.3
2017-Dec-02 16:30N 35°03' E 136°53'0 0.0
2017-Dec-02 16:00N 35°03' E 136°53'0 0.0
2017-Dec-02 15:30N 35°03' E 136°53'0 0.0
2017-Dec-02 15:00N 35°03' E 136°53'0 0.0
2017-Dec-02 14:30N 35°03' E 136°53'0 0.0
2017-Dec-02 14:00N 35°03' E 136°53'0 0.0
2017-Dec-02 13:30N 35°03' E 136°53'0 0.0
2017-Dec-02 13:00N 35°03' E 136°53'0 0.0
2017-Dec-02 12:30N 35°03' E 136°53'0 0.0
2017-Dec-02 12:00N 35°03' E 136°53'0 0.0
2017-Dec-02 11:30N 35°03' E 136°53'0 0.0
2017-Dec-02 11:00N 35°03' E 136°53'0 0.0
2017-Dec-02 10:30N 35°03' E 136°53'0 0.0
2017-Dec-02 10:01N 35°03' E 136°53'0 0.0
2017-Dec-02 09:30N 35°03' E 136°53'0 0.0
2017-Dec-02 09:00N 35°03' E 136°53'0 0.0
2017-Dec-02 08:30N 35°03' E 136°53'0 0.0
2017-Dec-02 08:00N 35°03' E 136°53'0 0.2
2017-Dec-02 07:30N 35°03' E 136°53'0 0.0
2017-Dec-02 07:00N 35°03' E 136°53'0 0.0
2017-Dec-02 06:30N 35°03' E 136°53'0 0.0
2017-Dec-02 06:00N 35°03' E 136°53'0 0.0
2017-Dec-02 05:30N 35°03' E 136°53'0 0.0
2017-Dec-02 05:00N 35°03' E 136°53'0 0.0
2017-Dec-02 04:30N 35°03' E 136°53'0 0.0
2017-Dec-02 04:00N 35°03' E 136°53'0 0.0
2017-Dec-02 03:30N 35°03' E 136°53'0 0.0
2017-Dec-02 03:00N 35°03' E 136°53'0 0.0
2017-Dec-02 02:30N 35°03' E 136°53'0 0.0
2017-Dec-02 02:00N 35°03' E 136°53'0 0.0
2017-Dec-02 01:30N 35°03' E 136°53'0 0.0
2017-Dec-02 01:00N 35°03' E 136°53'0 0.0
2017-Dec-02 00:30N 35°03' E 136°53'2 3.6
2017-Dec-02 00:00N 35°04' E 136°52'0 0.6
2017-Dec-01 23:30N 35°04' E 136°52'0 0.0
2017-Dec-01 23:00N 35°04' E 136°52'0 0.0
2017-Dec-01 22:30N 35°04' E 136°52'0 0.0
2017-Dec-01 22:00N 35°04' E 136°52'0 0.0
2017-Dec-01 21:30N 35°04' E 136°52'0 0.0
2017-Dec-01 21:00N 35°04' E 136°52'0 0.0
2017-Dec-01 20:30N 35°04' E 136°52'0 0.0
2017-Dec-01 20:00N 35°04' E 136°52'0 0.0
2017-Dec-01 19:30N 35°04' E 136°52'0 0.0
2017-Dec-01 19:00N 35°04' E 136°52'0 0.0
2017-Dec-01 18:30N 35°04' E 136°52'0 0.0
2017-Dec-01 18:00N 35°04' E 136°52'0 0.0
2017-Dec-01 17:30N 35°04' E 136°52'0 0.0
2017-Dec-01 17:00N 35°04' E 136°52'0 0.0
2017-Dec-01 16:30N 35°04' E 136°52'0 0.0
2017-Dec-01 16:00N 35°04' E 136°52'0 0.0
2017-Dec-01 15:30N 35°04' E 136°52'0 0.0
2017-Dec-01 15:00N 35°04' E 136°52'0 0.0
2017-Dec-01 14:30N 35°04' E 136°52'0 0.0
2017-Dec-01 14:00N 35°04' E 136°52'  
Track history (hours):
 
Tides and Currents Weather Stations Pressure Air Temp Water Temp Dewpoint Dewpoint Depression Visibility Wind Speed Wind Dir Waves Ship Positions

Shinryu Maru

Last reported at 2017-Dec-11 13:40 UTC. Time now 2017-Dec-13 14:46 UTC.
Position N 33°50' E 132°13'.

Length 84 m; draft 5 m.

Type: Cargo ship. MMSI: 431007228.

Date/timePositionNaut miles runAvg speedWind from/ knotsBaromVisibWave heightAir tempDewpointWater temp
2017-Dec-11 13:40N 33°50' E 132°13'1712.6
2017-Dec-11 12:20N 33°57' E 132°32'413.1
2017-Dec-11 12:00N 33°60' E 132°35'613.0
2017-Dec-11 11:30N 34°03' E 132°42'7711.7
2017-Dec-11 04:57N 34°32' E 134°09'1113.1
2017-Dec-11 04:06N 34°37' E 134°20'313.3
2017-Dec-11 03:54N 34°39' E 134°23'613.3
2017-Dec-11 03:28N 34°41' E 134°29'612.5
2017-Dec-11 03:00N 34°41' E 134°36'612.7
2017-Dec-11 02:30N 34°40' E 134°44'612.8
2017-Dec-11 02:00N 34°38' E 134°51'612.6
2017-Dec-11 01:30N 34°38' E 134°59'611.2
2017-Dec-11 01:00N 34°36' E 135°06'612.6
2017-Dec-11 00:30N 34°36' E 135°13'612.7
2017-Dec-11 00:01N 34°36' E 135°21'510.0
2017-Dec-10 23:30N 34°35' E 135°27'0 0.4
2017-Dec-10 23:00N 34°35' E 135°27'0 0.0
2017-Dec-10 22:30N 34°35' E 135°27'0 0.0
2017-Dec-10 22:00N 34°35' E 135°27'0 0.0
2017-Dec-10 21:30N 34°35' E 135°27'0 0.0
2017-Dec-10 21:00N 34°35' E 135°27'0 0.0
2017-Dec-10 20:30N 34°35' E 135°27'0 0.0
2017-Dec-10 20:00N 34°35' E 135°27'0 0.0
2017-Dec-10 19:30N 34°35' E 135°27'0 0.0
2017-Dec-10 19:00N 34°35' E 135°27'0 0.0
2017-Dec-10 18:30N 34°35' E 135°27'0 0.0
2017-Dec-10 18:00N 34°35' E 135°27'0 0.0
2017-Dec-10 17:30N 34°35' E 135°27'0 0.0
2017-Dec-10 17:00N 34°35' E 135°27'0 0.0
2017-Dec-10 16:30N 34°35' E 135°27'0 0.0
2017-Dec-10 16:00N 34°35' E 135°27'0 0.0
2017-Dec-10 15:30N 34°35' E 135°27'0 0.0
2017-Dec-10 15:00N 34°35' E 135°27'0 0.0
2017-Dec-10 14:30N 34°35' E 135°27'0 0.0
2017-Dec-10 14:00N 34°35' E 135°27'0 0.0
2017-Dec-10 13:30N 34°35' E 135°27'0 0.0
2017-Dec-10 13:00N 34°35' E 135°27'0 0.0
2017-Dec-10 12:30N 34°35' E 135°27'0 0.0
2017-Dec-10 12:00N 34°35' E 135°27'1 2.3
2017-Dec-10 11:30N 34°35' E 135°26'510.1
2017-Dec-10 11:00N 34°34' E 135°20'713.1
2017-Dec-10 10:30N 34°29' E 135°15'612.7
2017-Dec-10 10:00N 34°25' E 135°09'612.6
2017-Dec-10 09:30N 34°20' E 135°05'5 9.3
2017-Dec-10 09:00N 34°15' E 135°04'3 5.1
2017-Dec-10 08:30N 34°15' E 135°07'0 0.0
2017-Dec-10 08:00N 34°15' E 135°07'0 0.0
2017-Dec-10 07:30N 34°15' E 135°07'0 0.0
2017-Dec-10 07:00N 34°15' E 135°07'0 0.0
2017-Dec-10 06:30N 34°15' E 135°07'0 0.0
2017-Dec-10 06:00N 34°15' E 135°07'0 0.0
2017-Dec-10 05:30N 34°15' E 135°07'0 0.1
2017-Dec-10 05:00N 34°15' E 135°07'0 0.0
2017-Dec-10 04:30N 34°15' E 135°07'0 0.0
2017-Dec-10 04:00N 34°15' E 135°07'0 0.0
2017-Dec-10 03:30N 34°15' E 135°07'0 0.0
2017-Dec-10 03:00N 34°15' E 135°07'0 0.0
2017-Dec-10 02:30N 34°15' E 135°07'0 0.0
2017-Dec-10 02:00N 34°15' E 135°07'0 0.0
2017-Dec-10 01:30N 34°15' E 135°07'0 0.0
2017-Dec-10 01:00N 34°15' E 135°07'0 0.0
2017-Dec-10 00:30N 34°15' E 135°07'0 0.0
2017-Dec-10 00:00N 34°15' E 135°07'0 0.0
2017-Dec-09 23:30N 34°15' E 135°07'0 0.0
2017-Dec-09 23:00N 34°15' E 135°07'0 0.0
2017-Dec-09 22:30N 34°15' E 135°07'0 0.0
2017-Dec-09 22:00N 34°15' E 135°07'0 0.0
2017-Dec-09 21:30N 34°15' E 135°07'0 0.0
2017-Dec-09 21:00N 34°15' E 135°07'1 2.3
2017-Dec-09 20:30N 34°15' E 135°06'0 0.0
2017-Dec-09 20:00N 34°15' E 135°06'0 0.0
2017-Dec-09 19:30N 34°15' E 135°06'0 0.0
2017-Dec-09 19:00N 34°15' E 135°06'0 0.0
2017-Dec-09 18:30N 34°15' E 135°06'0 0.0
2017-Dec-09 18:00N 34°15' E 135°06'0 0.0
2017-Dec-09 17:30N 34°15' E 135°06'0 0.0
2017-Dec-09 17:00N 34°15' E 135°06'0 0.0
2017-Dec-09 16:30N 34°15' E 135°06'0 0.0
2017-Dec-09 16:00N 34°15' E 135°06'0 0.0
2017-Dec-09 15:30N 34°15' E 135°06'0 0.0
2017-Dec-09 15:00N 34°15' E 135°06'0 0.1
2017-Dec-09 14:30N 34°15' E 135°06'0 0.0
2017-Dec-09 14:00N 34°15' E 135°06'0 0.1
2017-Dec-09 13:30N 34°15' E 135°06'0 0.0
2017-Dec-09 13:00N 34°15' E 135°06'0 0.0
2017-Dec-09 12:30N 34°15' E 135°06'0 0.0
2017-Dec-09 12:00N 34°15' E 135°06'0 0.0
2017-Dec-09 11:30N 34°15' E 135°06'0 0.0
2017-Dec-09 11:00N 34°15' E 135°06'0 0.0
2017-Dec-09 10:30N 34°15' E 135°06'4 7.9
2017-Dec-09 10:00N 34°18' E 135°04'714.2
2017-Dec-09 09:30N 34°24' E 135°09'713.8
2017-Dec-09 09:00N 34°29' E 135°15'713.7
2017-Dec-09 08:30N 34°34' E 135°20'510.6
2017-Dec-09 08:00N 34°35' E 135°27'0 0.9
2017-Dec-09 07:30N 34°35' E 135°27'0 0.0
2017-Dec-09 07:00N 34°35' E 135°27'0 0.0
2017-Dec-09 06:30N 34°35' E 135°27'0 0.0
2017-Dec-09 06:00N 34°35' E 135°27'0 0.0
2017-Dec-09 05:30N 34°35' E 135°27'0 0.0
2017-Dec-09 05:00N 34°35' E 135°27'0 0.0
2017-Dec-09 04:30N 34°35' E 135°27'0 0.0
2017-Dec-09 04:00N 34°35' E 135°27'0 0.0
2017-Dec-09 03:30N 34°35' E 135°27'0 0.0
2017-Dec-09 03:00N 34°35' E 135°27'0 0.0
2017-Dec-09 02:30N 34°35' E 135°27'0 0.0
2017-Dec-09 02:00N 34°35' E 135°27'0 0.0
2017-Dec-09 01:30N 34°35' E 135°27'0 0.0
2017-Dec-09 01:00N 34°35' E 135°27'0 0.0
2017-Dec-09 00:30N 34°35' E 135°27'0 0.0
2017-Dec-09 00:00N 34°35' E 135°27'0 0.0
2017-Dec-08 23:30N 34°35' E 135°27'0 0.0
2017-Dec-08 23:00N 34°35' E 135°27'0 0.0
2017-Dec-08 22:30N 34°35' E 135°27'0 0.0
2017-Dec-08 22:00N 34°35' E 135°27'0 0.0
2017-Dec-08 21:30N 34°35' E 135°27'0 0.0
2017-Dec-08 21:00N 34°35' E 135°27'0 0.0
2017-Dec-08 20:30N 34°35' E 135°27'0 0.0
2017-Dec-08 20:00N 34°35' E 135°27'0 0.0
2017-Dec-08 19:30N 34°35' E 135°27'0 0.0
2017-Dec-08 19:00N 34°35' E 135°27'0 0.0
2017-Dec-08 18:30N 34°35' E 135°27'0 0.0
2017-Dec-08 18:00N 34°35' E 135°27'0 0.0
2017-Dec-08 17:30N 34°35' E 135°27'0 0.0
2017-Dec-08 17:00N 34°35' E 135°27'0 0.0
2017-Dec-08 16:30N 34°35' E 135°27'0 0.0
2017-Dec-08 16:00N 34°35' E 135°27'0 0.0
2017-Dec-08 15:30N 34°35' E 135°27'0 0.0
2017-Dec-08 15:00N 34°35' E 135°27'0 0.0
2017-Dec-08 14:30N 34°35' E 135°27'0 0.0
2017-Dec-08 14:00N 34°35' E 135°27'0 0.0
2017-Dec-08 13:30N 34°35' E 135°27'1 1.6
2017-Dec-08 13:00N 34°35' E 135°26'510.1
2017-Dec-08 12:30N 34°35' E 135°20'612.2
2017-Dec-08 12:00N 34°30' E 135°15'611.1
2017-Dec-08 11:30N 34°26' E 135°11'611.9
2017-Dec-08 11:00N 34°21' E 135°06'611.2
2017-Dec-08 10:30N 34°16' E 135°03'4 7.7
2017-Dec-08 10:00N 34°14' E 135°07'0 0.4
2017-Dec-08 09:30N 34°15' E 135°07'0 0.0
2017-Dec-08 09:00N 34°15' E 135°07'0 0.0
2017-Dec-08 08:30N 34°15' E 135°07'0 0.0
2017-Dec-08 08:00N 34°15' E 135°07'0 0.0
2017-Dec-08 07:30N 34°15' E 135°07'0 0.0
2017-Dec-08 07:00N 34°15' E 135°07'0 0.0
2017-Dec-08 06:30N 34°15' E 135°07'0 0.0
2017-Dec-08 06:00N 34°15' E 135°07'0 0.0
2017-Dec-08 05:30N 34°15' E 135°07'0 0.0
2017-Dec-08 05:00N 34°15' E 135°07'0 0.0
2017-Dec-08 04:30N 34°15' E 135°07'0 0.0
2017-Dec-08 04:00N 34°15' E 135°07'0 0.0
2017-Dec-08 03:30N 34°15' E 135°07'0 0.0
2017-Dec-08 03:00N 34°15' E 135°07'0 0.0
2017-Dec-08 02:30N 34°15' E 135°07'0 0.0
2017-Dec-08 02:00N 34°15' E 135°07'0 0.0
2017-Dec-08 01:30N 34°15' E 135°07'0 0.0
2017-Dec-08 01:00N 34°15' E 135°07'0 0.0
2017-Dec-08 00:30N 34°15' E 135°07'0 0.0
2017-Dec-08 00:00N 34°15' E 135°07'0 0.0
2017-Dec-07 23:30N 34°15' E 135°07'0 0.0
2017-Dec-07 23:00N 34°15' E 135°07'0 0.0
2017-Dec-07 22:30N 34°15' E 135°07'0 0.0
2017-Dec-07 22:00N 34°15' E 135°07'0 0.0
2017-Dec-07 21:30N 34°15' E 135°07'0 0.1
2017-Dec-07 21:00N 34°15' E 135°07'0 0.0
2017-Dec-07 20:30N 34°15' E 135°07'0 0.0
2017-Dec-07 20:00N 34°15' E 135°07'0 0.0
2017-Dec-07 19:30N 34°15' E 135°07'0 0.0
2017-Dec-07 19:00N 34°15' E 135°07'0 0.0
2017-Dec-07 18:30N 34°15' E 135°07'0 0.0
2017-Dec-07 18:00N 34°15' E 135°07'0 0.0
2017-Dec-07 17:30N 34°15' E 135°07'0 0.0
2017-Dec-07 17:00N 34°15' E 135°07'0 0.0
2017-Dec-07 16:30N 34°15' E 135°07'1 1.3
2017-Dec-07 16:00N 34°14' E 135°06'611.3
2017-Dec-07 15:30N 34°09' E 135°04'713.5
2017-Dec-07 15:00N 34°02' E 135°03'713.4
2017-Dec-07 14:28N 33°55' E 135°02'6510.3
2017-Dec-07 08:11N 33°47' E 136°19'2713.8
2017-Dec-07 06:13N 34°06' E 136°43'313.2
2017-Dec-07 05:57N 34°08' E 136°47'2613.3
2017-Dec-07 03:58N 34°31' E 137°02'913.8
2017-Dec-07 03:19N 34°38' E 136°54'514.2
2017-Dec-07 03:00N 34°41' E 136°50'714.2
2017-Dec-07 02:30N 34°47' E 136°46'713.6
2017-Dec-07 02:00N 34°54' E 136°46'713.5
2017-Dec-07 01:30N 34°60' E 136°49'4 8.3
2017-Dec-07 01:00N 35°03' E 136°53'0 0.0
2017-Dec-07 00:30N 35°03' E 136°53'0 0.0
2017-Dec-07 00:00N 35°03' E 136°53'0 0.0
2017-Dec-06 23:30N 35°03' E 136°53'0 0.0
2017-Dec-06 23:00N 35°03' E 136°53'0 0.0
2017-Dec-06 22:30N 35°03' E 136°53'0 0.0
2017-Dec-06 22:00N 35°03' E 136°53'0 0.0
2017-Dec-06 21:30N 35°03' E 136°53'0 0.0
2017-Dec-06 21:00N 35°03' E 136°53'  
2017-Dec-04 10:30N 33°58' E 132°43'7911.5
2017-Dec-04 03:40N 34°32' E 134°09'1112.6
2017-Dec-04 02:46N 34°39' E 134°20'413.2
2017-Dec-04 02:30N 34°40' E 134°23'713.5
2017-Dec-04 02:00N 34°43' E 134°31'713.1
2017-Dec-04 01:30N 34°46' E 134°38'0 0.1
2017-Dec-03 18:50N 34°47' E 134°38'0 0.0
2017-Dec-03 18:15N 34°47' E 134°38'0 0.0
2017-Dec-03 13:49N 34°47' E 134°38'2 5.1
2017-Dec-03 13:30N 34°45' E 134°38'0 0.2
2017-Dec-03 13:00N 34°45' E 134°38'0 0.1
2017-Dec-03 12:29N 34°45' E 134°38'3 6.4
2017-Dec-03 12:01N 34°42' E 134°40'612.8
2017-Dec-03 11:30N 34°36' E 134°40'612.9
2017-Dec-03 11:01N 34°30' E 134°39'612.8
2017-Dec-03 10:30N 34°23' E 134°38'713.3
2017-Dec-03 09:59N 34°16' E 134°38'714.2
2017-Dec-03 09:29N 34°10' E 134°43'612.7
2017-Dec-03 09:00N 34°06' E 134°48'612.5
2017-Dec-03 08:30N 34°01' E 134°53'712.9
2017-Dec-03 07:57N 33°55' E 134°58'83 9.3
2017-Dec-02 22:58N 34°01' E 136°38'612.9
2017-Dec-02 22:30N 34°05' E 136°43'3211.3
2017-Dec-02 19:38N 34°36' E 136°57'412.1
2017-Dec-02 19:21N 34°38' E 136°54'412.5
2017-Dec-02 19:00N 34°41' E 136°50'612.9
2017-Dec-02 18:30N 34°47' E 136°47'612.6
2017-Dec-02 18:00N 34°53' E 136°46'612.4
2017-Dec-02 17:30N 34°59' E 136°48'510.7
2017-Dec-02 17:00N 35°03' E 136°53'0 0.3
2017-Dec-02 16:30N 35°03' E 136°53'0 0.0
2017-Dec-02 16:00N 35°03' E 136°53'0 0.0
2017-Dec-02 15:30N 35°03' E 136°53'0 0.0
2017-Dec-02 15:00N 35°03' E 136°53'0 0.0
2017-Dec-02 14:30N 35°03' E 136°53'0 0.0
2017-Dec-02 14:00N 35°03' E 136°53'0 0.0
2017-Dec-02 13:30N 35°03' E 136°53'0 0.0
2017-Dec-02 13:00N 35°03' E 136°53'0 0.0
2017-Dec-02 12:30N 35°03' E 136°53'0 0.0
2017-Dec-02 12:00N 35°03' E 136°53'0 0.0
2017-Dec-02 11:30N 35°03' E 136°53'0 0.0
2017-Dec-02 11:00N 35°03' E 136°53'0 0.0
2017-Dec-02 10:30N 35°03' E 136°53'0 0.0
2017-Dec-02 10:01N 35°03' E 136°53'0 0.0
2017-Dec-02 09:30N 35°03' E 136°53'0 0.0
2017-Dec-02 09:00N 35°03' E 136°53'0 0.0
2017-Dec-02 08:30N 35°03' E 136°53'0 0.0
2017-Dec-02 08:00N 35°03' E 136°53'0 0.2
2017-Dec-02 07:30N 35°03' E 136°53'0 0.0
2017-Dec-02 07:00N 35°03' E 136°53'0 0.0
2017-Dec-02 06:30N 35°03' E 136°53'0 0.0
2017-Dec-02 06:00N 35°03' E 136°53'0 0.0
2017-Dec-02 05:30N 35°03' E 136°53'0 0.0
2017-Dec-02 05:00N 35°03' E 136°53'0 0.0
2017-Dec-02 04:30N 35°03' E 136°53'0 0.0
2017-Dec-02 04:00N 35°03' E 136°53'0 0.0
2017-Dec-02 03:30N 35°03' E 136°53'0 0.0
2017-Dec-02 03:00N 35°03' E 136°53'0 0.0
2017-Dec-02 02:30N 35°03' E 136°53'0 0.0
2017-Dec-02 02:00N 35°03' E 136°53'0 0.0
2017-Dec-02 01:30N 35°03' E 136°53'0 0.0
2017-Dec-02 01:00N 35°03' E 136°53'0 0.0
2017-Dec-02 00:30N 35°03' E 136°53'2 3.6
2017-Dec-02 00:00N 35°04' E 136°52'0 0.6
2017-Dec-01 23:30N 35°04' E 136°52'0 0.0
2017-Dec-01 23:00N 35°04' E 136°52'0 0.0
2017-Dec-01 22:30N 35°04' E 136°52'0 0.0
2017-Dec-01 22:00N 35°04' E 136°52'0 0.0
2017-Dec-01 21:30N 35°04' E 136°52'0 0.0
2017-Dec-01 21:00N 35°04' E 136°52'0 0.0
2017-Dec-01 20:30N 35°04' E 136°52'0 0.0
2017-Dec-01 20:00N 35°04' E 136°52'0 0.0
2017-Dec-01 19:30N 35°04' E 136°52'0 0.0
2017-Dec-01 19:00N 35°04' E 136°52'0 0.0
2017-Dec-01 18:30N 35°04' E 136°52'0 0.0
2017-Dec-01 18:00N 35°04' E 136°52'0 0.0
2017-Dec-01 17:30N 35°04' E 136°52'0 0.0
2017-Dec-01 17:00N 35°04' E 136°52'0 0.0
2017-Dec-01 16:30N 35°04' E 136°52'0 0.0
2017-Dec-01 16:00N 35°04' E 136°52'0 0.0
2017-Dec-01 15:30N 35°04' E 136°52'0 0.0
2017-Dec-01 15:00N 35°04' E 136°52'0 0.0
2017-Dec-01 14:30N 35°04' E 136°52'0 0.0
2017-Dec-01 14:00N 35°04' E 136°52'  

Dump ship's entire track history